sensor_id;sensor_type;location;lat;lon;timestamp;pressure;altitude;pressure_sealevel;temperature
42119;BMP280;27783;42.782;23.274;2023-12-14T00:00:52;94575.41;;;4.13
42119;BMP280;27783;42.782;23.274;2023-12-14T00:03:25;94569.03;;;4.04
42119;BMP280;27783;42.782;23.274;2023-12-14T00:05:51;94567.91;;;4.08
42119;BMP280;27783;42.782;23.274;2023-12-14T00:08:17;94562.81;;;4.25
42119;BMP280;27783;42.782;23.274;2023-12-14T00:10:44;94562.50;;;4.33
42119;BMP280;27783;42.782;23.274;2023-12-14T00:13:16;94563.31;;;4.44
42119;BMP280;27783;42.782;23.274;2023-12-14T00:15:42;94573.97;;;4.22
42119;BMP280;27783;42.782;23.274;2023-12-14T00:18:11;94575.50;;;4.30
42119;BMP280;27783;42.782;23.274;2023-12-14T00:20:38;94581.69;;;4.09
42119;BMP280;27783;42.782;23.274;2023-12-14T00:23:05;94575.38;;;4.10
42119;BMP280;27783;42.782;23.274;2023-12-14T00:25:33;94584.28;;;4.05
42119;BMP280;27783;42.782;23.274;2023-12-14T00:27:59;94568.66;;;4.09
42119;BMP280;27783;42.782;23.274;2023-12-14T00:30:27;94566.00;;;4.02
42119;BMP280;27783;42.782;23.274;2023-12-14T00:32:57;94557.19;;;4.16
42119;BMP280;27783;42.782;23.274;2023-12-14T00:35:23;94563.47;;;4.12
42119;BMP280;27783;42.782;23.274;2023-12-14T00:37:52;94560.97;;;4.29
42119;BMP280;27783;42.782;23.274;2023-12-14T00:40:18;94566.28;;;3.83
42119;BMP280;27783;42.782;23.274;2023-12-14T00:42:45;94569.31;;;3.96
42119;BMP280;27783;42.782;23.274;2023-12-14T00:45:43;94574.13;;;3.90
42119;BMP280;27783;42.782;23.274;2023-12-14T00:48:09;94572.72;;;3.50
42119;BMP280;27783;42.782;23.274;2023-12-14T00:50:35;94568.50;;;3.82
42119;BMP280;27783;42.782;23.274;2023-12-14T00:53:01;94564.13;;;3.96
42119;BMP280;27783;42.782;23.274;2023-12-14T00:55:27;94567.78;;;3.84
42119;BMP280;27783;42.782;23.274;2023-12-14T00:57:55;94583.78;;;3.86
42119;BMP280;27783;42.782;23.274;2023-12-14T01:00:22;94581.50;;;3.78
42119;BMP280;27783;42.782;23.274;2023-12-14T01:02:48;94587.91;;;3.87
42119;BMP280;27783;42.782;23.274;2023-12-14T01:05:13;94580.47;;;3.93
42119;BMP280;27783;42.782;23.274;2023-12-14T01:07:41;94584.13;;;3.82
42119;BMP280;27783;42.782;23.274;2023-12-14T01:10:09;94577.75;;;3.79
42119;BMP280;27783;42.782;23.274;2023-12-14T01:12:44;94575.81;;;3.66
42119;BMP280;27783;42.782;23.274;2023-12-14T01:15:11;94568.84;;;3.80
42119;BMP280;27783;42.782;23.274;2023-12-14T01:17:38;94564.56;;;3.55
42119;BMP280;27783;42.782;23.274;2023-12-14T01:20:25;94572.47;;;3.69
42119;BMP280;27783;42.782;23.274;2023-12-14T01:22:54;94571.53;;;3.90
42119;BMP280;27783;42.782;23.274;2023-12-14T01:25:19;94563.63;;;3.77
42119;BMP280;27783;42.782;23.274;2023-12-14T01:27:56;94577.63;;;3.62
42119;BMP280;27783;42.782;23.274;2023-12-14T01:30:22;94570.31;;;3.78
42119;BMP280;27783;42.782;23.274;2023-12-14T01:32:50;94567.69;;;3.74
42119;BMP280;27783;42.782;23.274;2023-12-14T01:35:16;94564.75;;;3.82
42119;BMP280;27783;42.782;23.274;2023-12-14T01:37:43;94553.34;;;3.97
42119;BMP280;27783;42.782;23.274;2023-12-14T01:40:12;94578.25;;;3.91
42119;BMP280;27783;42.782;23.274;2023-12-14T01:42:39;94566.28;;;3.87
42119;BMP280;27783;42.782;23.274;2023-12-14T01:45:05;94555.50;;;3.85
42119;BMP280;27783;42.782;23.274;2023-12-14T01:47:34;94550.63;;;3.83
42119;BMP280;27783;42.782;23.274;2023-12-14T01:50:00;94557.34;;;3.84
42119;BMP280;27783;42.782;23.274;2023-12-14T01:52:26;94561.66;;;3.64
42119;BMP280;27783;42.782;23.274;2023-12-14T01:54:56;94563.16;;;3.65
42119;BMP280;27783;42.782;23.274;2023-12-14T01:57:24;94537.69;;;3.45
42119;BMP280;27783;42.782;23.274;2023-12-14T01:59:49;94542.56;;;3.49
42119;BMP280;27783;42.782;23.274;2023-12-14T02:02:17;94547.94;;;3.24
42119;BMP280;27783;42.782;23.274;2023-12-14T02:04:43;94560.34;;;3.41
42119;BMP280;27783;42.782;23.274;2023-12-14T02:07:09;94554.22;;;3.65
42119;BMP280;27783;42.782;23.274;2023-12-14T02:09:37;94545.69;;;3.65
42119;BMP280;27783;42.782;23.274;2023-12-14T02:12:04;94559.41;;;3.59
42119;BMP280;27783;42.782;23.274;2023-12-14T02:14:30;94540.91;;;3.74
42119;BMP280;27783;42.782;23.274;2023-12-14T02:17:02;94554.66;;;3.71
42119;BMP280;27783;42.782;23.274;2023-12-14T02:19:28;94546.81;;;3.67
42119;BMP280;27783;42.782;23.274;2023-12-14T02:21:58;94558.56;;;3.48
42119;BMP280;27783;42.782;23.274;2023-12-14T02:24:27;94552.66;;;3.54
42119;BMP280;27783;42.782;23.274;2023-12-14T02:26:53;94546.00;;;3.18
42119;BMP280;27783;42.782;23.274;2023-12-14T02:29:19;94552.41;;;3.27
42119;BMP280;27783;42.782;23.274;2023-12-14T02:32:04;94554.94;;;2.82
42119;BMP280;27783;42.782;23.274;2023-12-14T02:34:31;94538.13;;;3.11
42119;BMP280;27783;42.782;23.274;2023-12-14T02:36:56;94540.94;;;3.32
42119;BMP280;27783;42.782;23.274;2023-12-14T02:39:22;94524.53;;;3.28
42119;BMP280;27783;42.782;23.274;2023-12-14T02:41:47;94532.19;;;3.56
42119;BMP280;27783;42.782;23.274;2023-12-14T02:44:13;94528.53;;;3.64
42119;BMP280;27783;42.782;23.274;2023-12-14T02:46:39;94534.28;;;3.90
42119;BMP280;27783;42.782;23.274;2023-12-14T02:49:05;94526.09;;;3.84
42119;BMP280;27783;42.782;23.274;2023-12-14T02:51:32;94539.88;;;3.88
42119;BMP280;27783;42.782;23.274;2023-12-14T02:54:02;94543.75;;;3.55
42119;BMP280;27783;42.782;23.274;2023-12-14T02:56:27;94538.47;;;3.49
42119;BMP280;27783;42.782;23.274;2023-12-14T02:58:55;94519.03;;;3.39
42119;BMP280;27783;42.782;23.274;2023-12-14T03:01:21;94545.03;;;3.36
42119;BMP280;27783;42.782;23.274;2023-12-14T03:04:06;94536.59;;;3.46
42119;BMP280;27783;42.782;23.274;2023-12-14T03:06:59;94538.78;;;3.44
42119;BMP280;27783;42.782;23.274;2023-12-14T03:09:29;94531.38;;;3.49
42119;BMP280;27783;42.782;23.274;2023-12-14T03:11:56;94510.94;;;3.48
42119;BMP280;27783;42.782;23.274;2023-12-14T03:14:22;68520.78;;;-133.02
42119;BMP280;27783;42.782;23.274;2023-12-14T03:16:48;68520.78;;;-133.02
42119;BMP280;27783;42.782;23.274;2023-12-14T03:19:21;68520.78;;;-133.02
42119;BMP280;27783;42.782;23.274;2023-12-14T03:21:46;68520.78;;;-133.02
42119;BMP280;27783;42.782;23.274;2023-12-14T03:24:30;68520.78;;;-133.02
42119;BMP280;27783;42.782;23.274;2023-12-14T03:26:59;68520.78;;;-133.02
42119;BMP280;27783;42.782;23.274;2023-12-14T03:29:26;68520.78;;;-133.02
42119;BMP280;27783;42.782;23.274;2023-12-14T03:32:13;68520.78;;;-133.02
42119;BMP280;27783;42.782;23.274;2023-12-14T03:34:46;68520.78;;;-133.02
42119;BMP280;27783;42.782;23.274;2023-12-14T03:37:13;68520.78;;;-133.02
42119;BMP280;27783;42.782;23.274;2023-12-14T03:39:42;68520.78;;;-133.02
42119;BMP280;27783;42.782;23.274;2023-12-14T03:42:08;68520.78;;;-133.02
42119;BMP280;27783;42.782;23.274;2023-12-14T03:44:34;68520.78;;;-133.02
42119;BMP280;27783;42.782;23.274;2023-12-14T03:47:00;68520.78;;;-133.02
42119;BMP280;27783;42.782;23.274;2023-12-14T03:49:26;68520.78;;;-133.02
42119;BMP280;27783;42.782;23.274;2023-12-14T03:51:51;68520.78;;;-133.02
42119;BMP280;27783;42.782;23.274;2023-12-14T03:54:18;68520.78;;;-133.02
42119;BMP280;27783;42.782;23.274;2023-12-14T03:56:44;68520.78;;;-133.02
42119;BMP280;27783;42.782;23.274;2023-12-14T03:59:12;68520.78;;;-133.02
42119;BMP280;27783;42.782;23.274;2023-12-14T04:01:39;68520.78;;;-133.02
42119;BMP280;27783;42.782;23.274;2023-12-14T04:04:06;68520.78;;;-133.02
42119;BMP280;27783;42.782;23.274;2023-12-14T04:06:33;68520.78;;;-133.02
42119;BMP280;27783;42.782;23.274;2023-12-14T04:09:00;68520.78;;;-133.02
42119;BMP280;27783;42.782;23.274;2023-12-14T04:11:27;68520.78;;;-133.02
42119;BMP280;27783;42.782;23.274;2023-12-14T04:13:58;68520.78;;;-133.02
42119;BMP280;27783;42.782;23.274;2023-12-14T04:16:24;68520.78;;;-133.02
42119;BMP280;27783;42.782;23.274;2023-12-14T04:18:50;68520.78;;;-133.02
42119;BMP280;27783;42.782;23.274;2023-12-14T04:21:16;68520.78;;;-133.02
42119;BMP280;27783;42.782;23.274;2023-12-14T04:23:42;68520.78;;;-133.02
42119;BMP280;27783;42.782;23.274;2023-12-14T04:26:12;68520.78;;;-133.02
42119;BMP280;27783;42.782;23.274;2023-12-14T04:28:58;68520.78;;;-133.02
42119;BMP280;27783;42.782;23.274;2023-12-14T04:31:24;68520.78;;;-133.02
42119;BMP280;27783;42.782;23.274;2023-12-14T04:33:51;68520.78;;;-133.02
42119;BMP280;27783;42.782;23.274;2023-12-14T04:36:19;68520.78;;;-133.02
42119;BMP280;27783;42.782;23.274;2023-12-14T04:38:47;68520.78;;;-133.02
42119;BMP280;27783;42.782;23.274;2023-12-14T04:41:13;68520.78;;;-133.02
42119;BMP280;27783;42.782;23.274;2023-12-14T04:43:39;68520.78;;;-133.02
42119;BMP280;27783;42.782;23.274;2023-12-14T04:46:07;68520.78;;;-133.02
42119;BMP280;27783;42.782;23.274;2023-12-14T04:48:36;68520.78;;;-133.02
42119;BMP280;27783;42.782;23.274;2023-12-14T04:51:01;68520.78;;;-133.02
42119;BMP280;27783;42.782;23.274;2023-12-14T04:53:27;68520.78;;;-133.02
42119;BMP280;27783;42.782;23.274;2023-12-14T04:56:13;68520.78;;;-133.02
42119;BMP280;27783;42.782;23.274;2023-12-14T04:58:44;68520.78;;;-133.02
42119;BMP280;27783;42.782;23.274;2023-12-14T05:01:16;68520.78;;;-133.02
42119;BMP280;27783;42.782;23.274;2023-12-14T05:03:43;68520.78;;;-133.02
42119;BMP280;27783;42.782;23.274;2023-12-14T05:06:20;68520.78;;;-133.02
42119;BMP280;27783;42.782;23.274;2023-12-14T05:08:50;68520.78;;;-133.02
42119;BMP280;27783;42.782;23.274;2023-12-14T05:11:15;68520.78;;;-133.02
42119;BMP280;27783;42.782;23.274;2023-12-14T05:13:41;68520.78;;;-133.02
42119;BMP280;27783;42.782;23.274;2023-12-14T05:16:13;68520.78;;;-133.02
42119;BMP280;27783;42.782;23.274;2023-12-14T05:18:40;68520.78;;;-133.02
42119;BMP280;27783;42.782;23.274;2023-12-14T05:21:08;68520.78;;;-133.02
42119;BMP280;27783;42.782;23.274;2023-12-14T05:23:35;68520.78;;;-133.02
42119;BMP280;27783;42.782;23.274;2023-12-14T05:26:00;68520.78;;;-133.02
42119;BMP280;27783;42.782;23.274;2023-12-14T05:28:26;68520.78;;;-133.02
42119;BMP280;27783;42.782;23.274;2023-12-14T05:30:52;68520.78;;;-133.02
42119;BMP280;27783;42.782;23.274;2023-12-14T05:33:18;68520.78;;;-133.02
42119;BMP280;27783;42.782;23.274;2023-12-14T05:35:43;68520.78;;;-133.02
42119;BMP280;27783;42.782;23.274;2023-12-14T05:38:09;68520.78;;;-133.02
42119;BMP280;27783;42.782;23.274;2023-12-14T05:40:35;68520.78;;;-133.02
42119;BMP280;27783;42.782;23.274;2023-12-14T05:43:00;68520.78;;;-133.02
42119;BMP280;27783;42.782;23.274;2023-12-14T05:45:26;68520.78;;;-133.02
42119;BMP280;27783;42.782;23.274;2023-12-14T05:47:51;68520.78;;;-133.02
42119;BMP280;27783;42.782;23.274;2023-12-14T05:50:17;68520.78;;;-133.02
42119;BMP280;27783;42.782;23.274;2023-12-14T05:52:42;68520.78;;;-133.02
42119;BMP280;27783;42.782;23.274;2023-12-14T05:55:08;68520.78;;;-133.02
42119;BMP280;27783;42.782;23.274;2023-12-14T05:57:39;68520.78;;;-133.02
42119;BMP280;27783;42.782;23.274;2023-12-14T06:00:07;68520.78;;;-133.02
42119;BMP280;27783;42.782;23.274;2023-12-14T06:02:33;68520.78;;;-133.02
42119;BMP280;27783;42.782;23.274;2023-12-14T06:04:58;68520.78;;;-133.02
42119;BMP280;27783;42.782;23.274;2023-12-14T06:07:25;68520.78;;;-133.02
42119;BMP280;27783;42.782;23.274;2023-12-14T06:09:50;68520.78;;;-133.02
42119;BMP280;27783;42.782;23.274;2023-12-14T06:12:16;68520.78;;;-133.02
42119;BMP280;27783;42.782;23.274;2023-12-14T06:14:41;68520.78;;;-133.02
42119;BMP280;27783;42.782;23.274;2023-12-14T06:17:07;68520.78;;;-133.02
42119;BMP280;27783;42.782;23.274;2023-12-14T06:19:32;68520.78;;;-133.02
42119;BMP280;27783;42.782;23.274;2023-12-14T06:21:58;68520.78;;;-133.02
42119;BMP280;27783;42.782;23.274;2023-12-14T06:24:23;68520.78;;;-133.02
42119;BMP280;27783;42.782;23.274;2023-12-14T06:26:49;68520.78;;;-133.02
42119;BMP280;27783;42.782;23.274;2023-12-14T06:29:14;68520.78;;;-133.02
42119;BMP280;27783;42.782;23.274;2023-12-14T06:31:40;68520.78;;;-133.02
42119;BMP280;27783;42.782;23.274;2023-12-14T06:34:05;68520.78;;;-133.02
42119;BMP280;27783;42.782;23.274;2023-12-14T06:36:31;68520.78;;;-133.02
42119;BMP280;27783;42.782;23.274;2023-12-14T06:39:01;68520.78;;;-133.02
42119;BMP280;27783;42.782;23.274;2023-12-14T06:41:28;68520.78;;;-133.02
42119;BMP280;27783;42.782;23.274;2023-12-14T06:43:55;68520.78;;;-133.02
42119;BMP280;27783;42.782;23.274;2023-12-14T06:46:21;68520.78;;;-133.02
42119;BMP280;27783;42.782;23.274;2023-12-14T06:48:48;68520.78;;;-133.02
42119;BMP280;27783;42.782;23.274;2023-12-14T06:51:14;68520.78;;;-133.02
42119;BMP280;27783;42.782;23.274;2023-12-14T06:53:40;68520.78;;;-133.02
42119;BMP280;27783;42.782;23.274;2023-12-14T06:56:06;68520.78;;;-133.02
42119;BMP280;27783;42.782;23.274;2023-12-14T06:58:35;68520.78;;;-133.02
42119;BMP280;27783;42.782;23.274;2023-12-14T07:01:00;68520.78;;;-133.02
42119;BMP280;27783;42.782;23.274;2023-12-14T07:03:25;68520.78;;;-133.02
42119;BMP280;27783;42.782;23.274;2023-12-14T07:05:51;68520.78;;;-133.02
42119;BMP280;27783;42.782;23.274;2023-12-14T07:08:16;68520.78;;;-133.02
42119;BMP280;27783;42.782;23.274;2023-12-14T07:10:41;68520.78;;;-133.02
42119;BMP280;27783;42.782;23.274;2023-12-14T07:13:07;68520.78;;;-133.02
42119;BMP280;27783;42.782;23.274;2023-12-14T07:15:33;68520.78;;;-133.02
42119;BMP280;27783;42.782;23.274;2023-12-14T07:17:59;68520.78;;;-133.02
42119;BMP280;27783;42.782;23.274;2023-12-14T07:20:24;68520.78;;;-133.02
42119;BMP280;27783;42.782;23.274;2023-12-14T07:22:50;68520.78;;;-133.02
42119;BMP280;27783;42.782;23.274;2023-12-14T07:25:15;68520.78;;;-133.02
42119;BMP280;27783;42.782;23.274;2023-12-14T07:27:41;68520.78;;;-133.02
42119;BMP280;27783;42.782;23.274;2023-12-14T07:30:07;68520.78;;;-133.02
42119;BMP280;27783;42.782;23.274;2023-12-14T07:32:34;68520.78;;;-133.02
42119;BMP280;27783;42.782;23.274;2023-12-14T07:35:00;68520.78;;;-133.02
42119;BMP280;27783;42.782;23.274;2023-12-14T07:37:25;68520.78;;;-133.02
42119;BMP280;27783;42.782;23.274;2023-12-14T07:39:50;68520.78;;;-133.02
42119;BMP280;27783;42.782;23.274;2023-12-14T07:42:17;68520.78;;;-133.02
42119;BMP280;27783;42.782;23.274;2023-12-14T07:44:45;68520.78;;;-133.02
42119;BMP280;27783;42.782;23.274;2023-12-14T07:47:11;68520.78;;;-133.02
42119;BMP280;27783;42.782;23.274;2023-12-14T07:49:36;68520.78;;;-133.02
42119;BMP280;27783;42.782;23.274;2023-12-14T07:52:02;68520.78;;;-133.02
42119;BMP280;27783;42.782;23.274;2023-12-14T07:54:27;68520.78;;;-133.02
42119;BMP280;27783;42.782;23.274;2023-12-14T07:56:53;68520.78;;;-133.02
42119;BMP280;27783;42.782;23.274;2023-12-14T07:59:19;68520.78;;;-133.02
42119;BMP280;27783;42.782;23.274;2023-12-14T08:01:45;68520.78;;;-133.02
42119;BMP280;27783;42.782;23.274;2023-12-14T08:04:10;68520.78;;;-133.02
42119;BMP280;27783;42.782;23.274;2023-12-14T08:06:36;68520.78;;;-133.02
42119;BMP280;27783;42.782;23.274;2023-12-14T08:09:04;68520.78;;;-133.02
42119;BMP280;27783;42.782;23.274;2023-12-14T08:11:31;68520.78;;;-133.02
42119;BMP280;27783;42.782;23.274;2023-12-14T08:13:56;68520.78;;;-133.02
42119;BMP280;27783;42.782;23.274;2023-12-14T08:16:21;68520.78;;;-133.02
42119;BMP280;27783;42.782;23.274;2023-12-14T08:18:47;68520.78;;;-133.02
42119;BMP280;27783;42.782;23.274;2023-12-14T08:21:14;68520.78;;;-133.02
42119;BMP280;27783;42.782;23.274;2023-12-14T08:23:39;68520.78;;;-133.02
42119;BMP280;27783;42.782;23.274;2023-12-14T08:26:05;68520.78;;;-133.02
42119;BMP280;27783;42.782;23.274;2023-12-14T08:28:30;68520.78;;;-133.02
42119;BMP280;27783;42.782;23.274;2023-12-14T08:30:56;68520.78;;;-133.02
42119;BMP280;27783;42.782;23.274;2023-12-14T08:33:27;68520.78;;;-133.02
42119;BMP280;27783;42.782;23.274;2023-12-14T08:35:52;68520.78;;;-133.02
42119;BMP280;27783;42.782;23.274;2023-12-14T08:38:17;68520.78;;;-133.02
42119;BMP280;27783;42.782;23.274;2023-12-14T08:40:43;68520.78;;;-133.02
42119;BMP280;27783;42.782;23.274;2023-12-14T08:43:08;68520.78;;;-133.02
42119;BMP280;27783;42.782;23.274;2023-12-14T08:45:33;68520.78;;;-133.02
42119;BMP280;27783;42.782;23.274;2023-12-14T08:47:59;68520.78;;;-133.02
42119;BMP280;27783;42.782;23.274;2023-12-14T08:50:24;68520.78;;;-133.02
42119;BMP280;27783;42.782;23.274;2023-12-14T08:52:51;68520.78;;;-133.02
42119;BMP280;27783;42.782;23.274;2023-12-14T08:55:17;68520.78;;;-133.02
42119;BMP280;27783;42.782;23.274;2023-12-14T08:57:43;68520.78;;;-133.02
42119;BMP280;27783;42.782;23.274;2023-12-14T09:00:09;68520.78;;;-133.02
42119;BMP280;27783;42.782;23.274;2023-12-14T09:02:35;68520.78;;;-133.02
42119;BMP280;27783;42.782;23.274;2023-12-14T09:05:00;68520.78;;;-133.02
42119;BMP280;27783;42.782;23.274;2023-12-14T09:07:26;68520.78;;;-133.02
42119;BMP280;27783;42.782;23.274;2023-12-14T09:09:51;68520.78;;;-133.02
42119;BMP280;27783;42.782;23.274;2023-12-14T09:12:17;68520.78;;;-133.02
42119;BMP280;27783;42.782;23.274;2023-12-14T09:14:42;68520.78;;;-133.02
42119;BMP280;27783;42.782;23.274;2023-12-14T09:17:07;68520.78;;;-133.02
42119;BMP280;27783;42.782;23.274;2023-12-14T09:19:33;68520.78;;;-133.02
42119;BMP280;27783;42.782;23.274;2023-12-14T09:21:59;68520.78;;;-133.02
42119;BMP280;27783;42.782;23.274;2023-12-14T09:24:24;68520.78;;;-133.02
42119;BMP280;27783;42.782;23.274;2023-12-14T09:26:50;68520.78;;;-133.02
42119;BMP280;27783;42.782;23.274;2023-12-14T09:29:15;68520.78;;;-133.02
42119;BMP280;27783;42.782;23.274;2023-12-14T09:31:45;68520.78;;;-133.02
42119;BMP280;27783;42.782;23.274;2023-12-14T09:34:11;68520.78;;;-133.02
42119;BMP280;27783;42.782;23.274;2023-12-14T09:36:37;68520.78;;;-133.02
42119;BMP280;27783;42.782;23.274;2023-12-14T09:39:02;68520.78;;;-133.02
42119;BMP280;27783;42.782;23.274;2023-12-14T09:41:28;68520.78;;;-133.02
42119;BMP280;27783;42.782;23.274;2023-12-14T09:43:54;68520.78;;;-133.02
42119;BMP280;27783;42.782;23.274;2023-12-14T09:46:21;68520.78;;;-133.02
42119;BMP280;27783;42.782;23.274;2023-12-14T09:48:47;68520.78;;;-133.02
42119;BMP280;27783;42.782;23.274;2023-12-14T09:51:14;68520.78;;;-133.02
42119;BMP280;27783;42.782;23.274;2023-12-14T09:53:40;68520.78;;;-133.02
42119;BMP280;27783;42.782;23.274;2023-12-14T09:56:06;68520.78;;;-133.02
42119;BMP280;27783;42.782;23.274;2023-12-14T09:58:32;68520.78;;;-133.02
42119;BMP280;27783;42.782;23.274;2023-12-14T10:00:58;68520.78;;;-133.02
42119;BMP280;27783;42.782;23.274;2023-12-14T10:03:27;68520.78;;;-133.02
42119;BMP280;27783;42.782;23.274;2023-12-14T10:05:57;68520.78;;;-133.02
42119;BMP280;27783;42.782;23.274;2023-12-14T10:08:23;68520.78;;;-133.02
42119;BMP280;27783;42.782;23.274;2023-12-14T10:10:52;68520.78;;;-133.02
42119;BMP280;27783;42.782;23.274;2023-12-14T10:13:37;68520.78;;;-133.02
42119;BMP280;27783;42.782;23.274;2023-12-14T10:16:03;68520.78;;;-133.02
42119;BMP280;27783;42.782;23.274;2023-12-14T10:18:28;68520.78;;;-133.02
42119;BMP280;27783;42.782;23.274;2023-12-14T10:20:54;68520.78;;;-133.02
42119;BMP280;27783;42.782;23.274;2023-12-14T10:23:21;68520.78;;;-133.02
42119;BMP280;27783;42.782;23.274;2023-12-14T10:25:46;68520.78;;;-133.02
42119;BMP280;27783;42.782;23.274;2023-12-14T10:28:12;68520.78;;;-133.02
42119;BMP280;27783;42.782;23.274;2023-12-14T10:30:41;68520.78;;;-133.02
42119;BMP280;27783;42.782;23.274;2023-12-14T10:33:07;68520.78;;;-133.02
42119;BMP280;27783;42.782;23.274;2023-12-14T10:35:33;68520.78;;;-133.02
42119;BMP280;27783;42.782;23.274;2023-12-14T10:38:02;68520.78;;;-133.02
42119;BMP280;27783;42.782;23.274;2023-12-14T10:40:30;68520.78;;;-133.02
42119;BMP280;27783;42.782;23.274;2023-12-14T10:42:58;68520.78;;;-133.02
42119;BMP280;27783;42.782;23.274;2023-12-14T10:45:30;68520.78;;;-133.02
42119;BMP280;27783;42.782;23.274;2023-12-14T10:47:59;68520.78;;;-133.02
42119;BMP280;27783;42.782;23.274;2023-12-14T10:50:29;68520.78;;;-133.02
42119;BMP280;27783;42.782;23.274;2023-12-14T10:52:57;68520.78;;;-133.02
42119;BMP280;27783;42.782;23.274;2023-12-14T10:55:37;68520.78;;;-133.02
42119;BMP280;27783;42.782;23.274;2023-12-14T10:58:03;68520.78;;;-133.02
42119;BMP280;27783;42.782;23.274;2023-12-14T11:00:30;68520.78;;;-133.02
42119;BMP280;27783;42.782;23.274;2023-12-14T11:02:59;68520.78;;;-133.02
42119;BMP280;27783;42.782;23.274;2023-12-14T11:05:27;68520.78;;;-133.02
42119;BMP280;27783;42.782;23.274;2023-12-14T11:08:00;68520.78;;;-133.02
42119;BMP280;27783;42.782;23.274;2023-12-14T11:10:37;68520.78;;;-133.02
42119;BMP280;27783;42.782;23.274;2023-12-14T11:13:06;68520.78;;;-133.02
42119;BMP280;27783;42.782;23.274;2023-12-14T11:15:35;68520.78;;;-133.02
42119;BMP280;27783;42.782;23.274;2023-12-14T11:23:11;68520.78;;;-133.02
42119;BMP280;27783;42.782;23.274;2023-12-14T11:25:40;68520.78;;;-133.02
42119;BMP280;27783;42.782;23.274;2023-12-14T11:28:06;68520.78;;;-133.02
42119;BMP280;27783;42.782;23.274;2023-12-14T11:30:33;68520.78;;;-133.02
42119;BMP280;27783;42.782;23.274;2023-12-14T11:32:59;68520.78;;;-133.02
42119;BMP280;27783;42.782;23.274;2023-12-14T11:35:24;68520.78;;;-133.02
42119;BMP280;27783;42.782;23.274;2023-12-14T11:37:50;68520.78;;;-133.02
42119;BMP280;27783;42.782;23.274;2023-12-14T11:40:16;68520.78;;;-133.02
42119;BMP280;27783;42.782;23.274;2023-12-14T11:43:06;68520.78;;;-133.02
42119;BMP280;27783;42.782;23.274;2023-12-14T11:45:38;68520.78;;;-133.02
42119;BMP280;27783;42.782;23.274;2023-12-14T11:48:05;68520.78;;;-133.02
42119;BMP280;27783;42.782;23.274;2023-12-14T11:50:32;68520.78;;;-133.02
42119;BMP280;27783;42.782;23.274;2023-12-14T11:53:01;68520.78;;;-133.02
42119;BMP280;27783;42.782;23.274;2023-12-14T11:55:31;68520.78;;;-133.02
42119;BMP280;27783;42.782;23.274;2023-12-14T11:57:57;68520.78;;;-133.02
42119;BMP280;27783;42.782;23.274;2023-12-14T12:00:25;68520.78;;;-133.02
42119;BMP280;27783;42.782;23.274;2023-12-14T12:02:51;68520.78;;;-133.02
42119;BMP280;27783;42.782;23.274;2023-12-14T12:05:17;68520.78;;;-133.02
42119;BMP280;27783;42.782;23.274;2023-12-14T12:07:45;68520.78;;;-133.02
42119;BMP280;27783;42.782;23.274;2023-12-14T12:10:11;68520.78;;;-133.02
42119;BMP280;27783;42.782;23.274;2023-12-14T12:12:37;68520.78;;;-133.02
42119;BMP280;27783;42.782;23.274;2023-12-14T12:15:03;68520.78;;;-133.02
42119;BMP280;27783;42.782;23.274;2023-12-14T12:17:29;68520.78;;;-133.02
42119;BMP280;27783;42.782;23.274;2023-12-14T12:19:55;68520.78;;;-133.02
42119;BMP280;27783;42.782;23.274;2023-12-14T12:22:20;68520.78;;;-133.02
42119;BMP280;27783;42.782;23.274;2023-12-14T12:24:46;68520.78;;;-133.02
42119;BMP280;27783;42.782;23.274;2023-12-14T12:27:11;68520.78;;;-133.02
42119;BMP280;27783;42.782;23.274;2023-12-14T12:29:36;68520.78;;;-133.02
42119;BMP280;27783;42.782;23.274;2023-12-14T12:32:02;68520.78;;;-133.02
42119;BMP280;27783;42.782;23.274;2023-12-14T12:34:27;68520.78;;;-133.02
42119;BMP280;27783;42.782;23.274;2023-12-14T12:36:54;68520.78;;;-133.02
42119;BMP280;27783;42.782;23.274;2023-12-14T12:39:20;68520.78;;;-133.02
42119;BMP280;27783;42.782;23.274;2023-12-14T12:41:45;68520.78;;;-133.02
42119;BMP280;27783;42.782;23.274;2023-12-14T12:44:10;68520.78;;;-133.02
42119;BMP280;27783;42.782;23.274;2023-12-14T12:46:36;68520.78;;;-133.02
42119;BMP280;27783;42.782;23.274;2023-12-14T12:49:02;68520.78;;;-133.02
42119;BMP280;27783;42.782;23.274;2023-12-14T12:51:28;68520.78;;;-133.02
42119;BMP280;27783;42.782;23.274;2023-12-14T12:53:55;68520.78;;;-133.02
42119;BMP280;27783;42.782;23.274;2023-12-14T12:56:20;68520.78;;;-133.02
42119;BMP280;27783;42.782;23.274;2023-12-14T12:58:46;68520.78;;;-133.02
42119;BMP280;27783;42.782;23.274;2023-12-14T13:01:12;68520.78;;;-133.02
42119;BMP280;27783;42.782;23.274;2023-12-14T13:03:37;68520.78;;;-133.02
42119;BMP280;27783;42.782;23.274;2023-12-14T13:06:04;68520.78;;;-133.02
42119;BMP280;27783;42.782;23.274;2023-12-14T13:08:29;68520.78;;;-133.02
42119;BMP280;27783;42.782;23.274;2023-12-14T13:10:56;68520.78;;;-133.02
42119;BMP280;27783;42.782;23.274;2023-12-14T13:13:22;68520.78;;;-133.02
42119;BMP280;27783;42.782;23.274;2023-12-14T13:15:48;68520.78;;;-133.02
42119;BMP280;27783;42.782;23.274;2023-12-14T13:18:14;68520.78;;;-133.02
42119;BMP280;27783;42.782;23.274;2023-12-14T13:20:41;68520.78;;;-133.02
42119;BMP280;27783;42.782;23.274;2023-12-14T13:23:07;68520.78;;;-133.02
42119;BMP280;27783;42.782;23.274;2023-12-14T13:25:33;68520.78;;;-133.02
42119;BMP280;27783;42.782;23.274;2023-12-14T13:27:58;68520.78;;;-133.02
42119;BMP280;27783;42.782;23.274;2023-12-14T13:30:24;68520.78;;;-133.02
42119;BMP280;27783;42.782;23.274;2023-12-14T13:32:50;68520.78;;;-133.02
42119;BMP280;27783;42.782;23.274;2023-12-14T13:35:15;68520.78;;;-133.02
42119;BMP280;27783;42.782;23.274;2023-12-14T13:37:43;68520.78;;;-133.02
42119;BMP280;27783;42.782;23.274;2023-12-14T13:40:08;68520.78;;;-133.02
42119;BMP280;27783;42.782;23.274;2023-12-14T13:42:35;68520.78;;;-133.02
42119;BMP280;27783;42.782;23.274;2023-12-14T13:45:00;68520.78;;;-133.02
42119;BMP280;27783;42.782;23.274;2023-12-14T13:47:26;68520.78;;;-133.02